createdAt,value
2022-11-18T00:01:07.537Z,7.10
2022-11-18T00:03:34.216Z,7.10
2022-11-18T00:06:00.919Z,8.00
2022-11-18T00:08:27.772Z,7.20
2022-11-18T00:10:54.372Z,7.10
2022-11-18T00:13:39.642Z,7.20
2022-11-18T00:16:08.055Z,8.20
2022-11-18T00:18:34.735Z,7.10
2022-11-18T00:21:11.266Z,8.20
2022-11-18T00:23:38.607Z,7.20
2022-11-18T00:26:09.340Z,7.10
2022-11-18T00:28:35.926Z,7.10
2022-11-18T00:31:04.147Z,7.20
2022-11-18T00:33:30.807Z,7.10
2022-11-18T00:35:57.952Z,7.10
2022-11-18T00:38:25.452Z,7.50
2022-11-18T00:41:05.581Z,7.10
2022-11-18T00:43:33.025Z,7.20
2022-11-18T00:45:59.795Z,7.20
2022-11-18T00:48:26.624Z,7.20
2022-11-18T00:50:54.584Z,7.20
2022-11-18T00:53:22.621Z,8.20
2022-11-18T00:55:49.574Z,8.10
2022-11-18T00:58:16.300Z,7.20
2022-11-18T01:00:43.594Z,7.60
2022-11-18T01:03:11.118Z,8.40
2022-11-18T01:05:38.117Z,8.90
2022-11-18T01:08:06.346Z,7.10
2022-11-18T01:10:33.223Z,7.10
2022-11-18T01:13:18.521Z,7.10
2022-11-18T01:15:46.350Z,7.20
2022-11-18T01:18:13.004Z,7.20
2022-11-18T01:20:39.736Z,7.20
2022-11-18T01:23:06.465Z,7.20
2022-11-18T01:25:34.808Z,7.20
2022-11-18T01:28:01.427Z,7.20
2022-11-18T01:30:27.988Z,8.70
2022-11-18T01:32:54.627Z,6.30
2022-11-18T01:35:21.231Z,7.20
2022-11-18T01:37:47.960Z,7.20
2022-11-18T01:40:14.838Z,7.20
2022-11-18T01:42:41.576Z,6.70
2022-11-18T01:45:09.950Z,8.00
2022-11-18T01:47:42.170Z,7.90
2022-11-18T01:50:09.702Z,7.20
2022-11-18T01:52:36.685Z,7.20
2022-11-18T01:55:10.741Z,7.20
2022-11-18T01:57:37.466Z,7.20
2022-11-18T02:00:05.602Z,7.20
2022-11-18T02:02:36.650Z,7.20
2022-11-18T02:05:04.411Z,7.20
2022-11-18T02:07:32.541Z,7.20
2022-11-18T02:10:02.123Z,8.40
2022-11-18T02:12:28.943Z,7.50
2022-11-18T02:14:55.626Z,7.10
2022-11-18T02:17:41.175Z,7.10
2022-11-18T02:20:22.932Z,7.10
2022-11-18T02:22:49.472Z,7.10
2022-11-18T02:25:16.052Z,7.10
2022-11-18T02:27:45.724Z,7.10
2022-11-18T02:30:13.124Z,7.10
2022-11-18T02:32:43.275Z,7.20
2022-11-18T02:35:15.899Z,7.80
2022-11-18T02:37:45.993Z,7.00
2022-11-18T02:40:12.746Z,7.10
2022-11-18T02:42:40.441Z,7.50
2022-11-18T02:45:08.829Z,7.00
2022-11-18T02:47:36.302Z,6.90
2022-11-18T02:50:09.074Z,8.20
2022-11-18T02:52:37.331Z,6.80
2022-11-18T02:55:06.014Z,8.20
2022-11-18T02:57:33.643Z,6.80
2022-11-18T03:00:00.224Z,6.80
2022-11-18T03:02:26.958Z,6.80
2022-11-18T03:04:56.094Z,7.70
2022-11-18T03:07:22.667Z,6.90
2022-11-18T03:09:51.500Z,6.90
2022-11-18T03:12:33.081Z,6.90
2022-11-18T03:15:09.254Z,6.80
2022-11-18T03:17:45.160Z,6.90
2022-11-18T03:20:23.984Z,6.90
2022-11-18T03:22:53.572Z,6.90
2022-11-18T03:25:23.485Z,6.90
2022-11-18T03:27:59.110Z,7.00
2022-11-18T03:30:26.202Z,6.90
2022-11-18T03:32:57.858Z,8.50
2022-11-18T03:35:25.967Z,7.90
2022-11-18T03:37:55.016Z,8.40
2022-11-18T03:40:24.398Z,7.50
2022-11-18T03:42:52.926Z,8.30
2022-11-18T03:45:21.584Z,7.30
2022-11-18T03:47:52.569Z,6.90
2022-11-18T03:50:21.995Z,7.90
2022-11-18T03:52:50.178Z,7.00
2022-11-18T03:55:22.129Z,6.90
2022-11-18T03:57:56.493Z,6.90
2022-11-18T04:00:23.725Z,6.90
2022-11-18T04:02:50.482Z,6.90
2022-11-18T04:05:18.182Z,6.90
2022-11-18T04:07:50.966Z,6.90
2022-11-18T04:10:19.068Z,6.90
2022-11-18T04:13:04.798Z,7.70
2022-11-18T04:15:33.369Z,6.90
2022-11-18T04:17:59.956Z,7.00
2022-11-18T04:20:26.747Z,6.90
2022-11-18T04:22:53.396Z,6.90
2022-11-18T04:25:20.041Z,6.90
2022-11-18T04:27:46.642Z,6.90
2022-11-18T04:30:13.300Z,6.80
2022-11-18T04:32:39.874Z,6.80
2022-11-18T04:35:06.540Z,6.70
2022-11-18T04:37:33.336Z,6.70
2022-11-18T04:40:00.013Z,6.70
2022-11-18T04:42:26.804Z,6.70
2022-11-18T04:44:53.394Z,8.30
2022-11-18T04:47:20.027Z,6.70
2022-11-18T04:49:46.665Z,6.70
2022-11-18T04:52:13.566Z,6.70
2022-11-18T04:54:40.306Z,6.60
2022-11-18T04:57:06.895Z,6.60
2022-11-18T04:59:33.562Z,6.60
2022-11-18T05:02:01.200Z,6.60
2022-11-18T05:04:32.279Z,6.70
2022-11-18T05:06:59.535Z,7.20
2022-11-18T05:09:31.590Z,6.60
2022-11-18T05:12:17.220Z,6.50
2022-11-18T05:14:49.352Z,6.50
2022-11-18T05:17:17.051Z,6.60
2022-11-18T05:19:43.597Z,6.60
2022-11-18T05:22:10.196Z,6.60
2022-11-18T05:24:36.856Z,6.50
2022-11-18T05:27:03.535Z,6.60
2022-11-18T05:29:30.175Z,6.60
2022-11-18T05:31:56.818Z,6.60
2022-11-18T05:34:23.562Z,6.60
2022-11-18T05:36:50.228Z,7.90
2022-11-18T05:39:17.204Z,8.60
2022-11-18T05:42:02.698Z,6.70
2022-11-18T05:44:29.302Z,6.70
2022-11-18T05:46:56.640Z,6.70
2022-11-18T05:49:23.534Z,6.70
2022-11-18T05:51:50.175Z,6.70
2022-11-18T05:54:17.965Z,6.70
2022-11-18T05:56:45.552Z,6.70
2022-11-18T05:59:12.450Z,6.70
2022-11-18T06:01:39.020Z,6.70
2022-11-18T06:04:11.298Z,6.80
2022-11-18T06:06:38.017Z,6.70
2022-11-18T06:09:05.685Z,6.70
2022-11-18T06:11:34.269Z,6.60
2022-11-18T06:14:03.307Z,6.60
2022-11-18T06:16:33.397Z,6.60
2022-11-18T06:19:03.371Z,6.60
2022-11-18T06:21:30.063Z,6.60
2022-11-18T06:23:56.829Z,6.60
2022-11-18T06:26:23.482Z,6.60
2022-11-18T06:28:50.237Z,6.50
2022-11-18T06:31:19.672Z,6.50
2022-11-18T06:33:46.277Z,6.80
2022-11-18T06:36:12.944Z,6.50
2022-11-18T06:38:39.589Z,7.80
2022-11-18T06:41:06.395Z,6.40
2022-11-18T06:43:38.978Z,6.40
2022-11-18T06:46:25.389Z,6.50
2022-11-18T06:48:52.619Z,6.40
2022-11-18T06:51:19.588Z,6.40
2022-11-18T06:53:46.223Z,6.40
2022-11-18T06:56:14.319Z,7.90
2022-11-18T06:58:40.905Z,7.50
2022-11-18T07:01:16.888Z,6.50
2022-11-18T07:03:44.620Z,6.40
2022-11-18T07:06:11.917Z,6.50
2022-11-18T07:08:39.545Z,6.50
2022-11-18T07:11:07.194Z,6.50
2022-11-18T07:13:35.365Z,6.50
2022-11-18T07:16:04.911Z,6.60
2022-11-18T07:18:32.387Z,8.20
2022-11-18T07:21:01.287Z,6.50
2022-11-18T07:23:28.390Z,7.90
2022-11-18T07:25:55.290Z,6.50
2022-11-18T07:28:22.153Z,6.50
2022-11-18T07:30:48.783Z,6.50
2022-11-18T07:33:15.343Z,6.60
2022-11-18T07:35:42.076Z,6.60
2022-11-18T07:38:09.260Z,7.70
2022-11-18T07:40:35.933Z,6.50
2022-11-18T07:43:02.549Z,6.60
2022-11-18T07:45:29.157Z,6.50
2022-11-18T07:47:55.854Z,6.60
2022-11-18T07:50:22.427Z,6.60
2022-11-18T07:52:49.068Z,6.70
2022-11-18T07:55:15.667Z,6.80
2022-11-18T07:57:42.335Z,6.80
2022-11-18T08:00:09.333Z,6.80
2022-11-18T08:02:35.953Z,6.80
2022-11-18T08:05:02.885Z,6.90
2022-11-18T08:07:29.690Z,6.90
2022-11-18T08:09:56.380Z,7.00
2022-11-18T08:12:23.011Z,7.00
2022-11-18T08:14:49.657Z,7.00
2022-11-18T08:17:16.328Z,8.40
2022-11-18T08:19:42.920Z,7.00
2022-11-18T08:22:09.976Z,8.00
2022-11-18T08:24:36.543Z,7.10
2022-11-18T08:27:03.226Z,7.10
2022-11-18T08:29:30.070Z,7.20
2022-11-18T08:31:56.907Z,7.10
2022-11-18T08:34:23.447Z,7.10
2022-11-18T08:36:50.029Z,7.10
2022-11-18T08:39:16.846Z,7.10
2022-11-18T08:41:43.988Z,7.20
2022-11-18T08:44:12.420Z,7.50
2022-11-18T08:46:39.034Z,8.60
2022-11-18T08:49:05.829Z,7.20
2022-11-18T08:51:32.469Z,7.20
2022-11-18T08:53:59.191Z,7.20
2022-11-18T08:56:26.002Z,8.50
2022-11-18T08:58:52.879Z,7.20
2022-11-18T09:01:19.600Z,8.70
2022-11-18T09:03:47.199Z,8.60
2022-11-18T09:06:18.052Z,7.30
2022-11-18T09:08:44.986Z,7.40
2022-11-18T09:11:18.769Z,8.10
2022-11-18T09:15:05.849Z,7.40
2022-11-18T09:16:33.580Z,9.20
2022-11-18T09:19:18.191Z,7.50
2022-11-18T09:21:46.790Z,7.50
2022-11-18T09:24:13.352Z,7.50
2022-11-18T09:26:40.088Z,7.60
2022-11-18T09:29:06.797Z,7.60
2022-11-18T09:31:33.384Z,7.70
2022-11-18T09:34:00.686Z,7.80
2022-11-18T09:36:27.515Z,7.90
2022-11-18T09:38:54.474Z,8.00
2022-11-18T09:41:26.997Z,8.20
2022-11-18T09:44:12.395Z,8.10
2022-11-18T09:46:54.936Z,8.10
2022-11-18T09:49:30.664Z,8.20
2022-11-18T09:52:01.356Z,8.20
2022-11-18T09:54:30.873Z,8.30
2022-11-18T09:56:57.695Z,8.30
2022-11-18T09:59:25.474Z,8.80
2022-11-18T10:01:53.183Z,9.40
2022-11-18T10:04:20.779Z,8.40
2022-11-18T10:06:48.422Z,8.50
2022-11-18T10:09:24.829Z,8.50
2022-11-18T10:11:54.426Z,8.50
2022-11-18T10:14:33.333Z,8.60
2022-11-18T10:16:59.934Z,8.70
2022-11-18T10:19:29.550Z,8.80
2022-11-18T10:22:01.955Z,8.80
2022-11-18T10:24:33.013Z,8.90
2022-11-18T10:27:00.023Z,8.90
2022-11-18T10:29:27.180Z,9.00
2022-11-18T10:32:03.846Z,9.10
2022-11-18T10:34:31.530Z,9.10
2022-11-18T10:37:05.596Z,9.10
2022-11-18T10:39:32.523Z,9.20
2022-11-18T10:42:06.388Z,9.80
2022-11-18T10:44:33.120Z,9.30
2022-11-18T10:47:16.883Z,10.30
2022-11-18T10:49:43.498Z,9.40
2022-11-18T10:52:11.378Z,9.30
2022-11-18T10:54:38.259Z,10.90
2022-11-18T10:57:04.806Z,9.90
2022-11-18T10:59:36.535Z,9.20
2022-11-18T11:02:12.809Z,9.10
2022-11-18T11:04:40.720Z,9.10
2022-11-18T11:07:16.402Z,9.10
2022-11-18T11:09:43.536Z,9.10
2022-11-18T11:12:14.632Z,9.10
2022-11-18T11:14:55.653Z,9.10
2022-11-18T11:17:34.071Z,9.00
2022-11-18T11:20:04.251Z,9.00
2022-11-18T11:22:30.892Z,8.90
2022-11-18T11:24:57.520Z,8.90
2022-11-18T11:30:16.574Z,8.90
2022-11-18T11:32:56.632Z,9.90
2022-11-18T11:35:25.942Z,9.00
2022-11-18T11:38:00.837Z,9.90
2022-11-18T11:40:42.071Z,8.90
2022-11-18T11:43:23.183Z,9.80
2022-11-18T11:46:05.124Z,8.90
2022-11-18T11:48:31.763Z,9.00
2022-11-18T11:51:05.073Z,9.00
2022-11-18T11:53:38.097Z,10.00
2022-11-18T11:56:22.212Z,9.10
2022-11-18T11:58:55.434Z,9.10
2022-11-18T12:01:27.944Z,9.20
2022-11-18T12:04:06.642Z,9.20
2022-11-18T12:06:33.559Z,9.20
2022-11-18T12:09:12.259Z,11.10
2022-11-18T12:11:49.300Z,9.20
2022-11-18T12:14:34.642Z,9.10
2022-11-18T12:17:08.553Z,9.00
2022-11-18T12:19:37.366Z,10.20
2022-11-18T12:22:05.274Z,11.40
2022-11-18T12:24:33.309Z,10.70
2022-11-18T12:27:01.274Z,11.20
2022-11-18T12:29:34.240Z,9.20
2022-11-18T12:32:04.080Z,10.80
2022-11-18T12:34:32.248Z,9.20
2022-11-18T12:37:18.881Z,11.00
2022-11-18T12:39:46.980Z,10.40
2022-11-18T12:42:51.087Z,11.50
2022-11-18T12:45:36.401Z,9.30
2022-11-18T12:48:03.376Z,9.30
2022-11-18T12:50:49.537Z,9.20
2022-11-18T12:53:28.448Z,9.20
2022-11-18T12:55:55.846Z,9.10
2022-11-18T12:58:23.597Z,9.10
2022-11-18T13:00:53.282Z,11.70
2022-11-18T13:03:24.743Z,9.80
2022-11-18T13:05:58.142Z,9.20
2022-11-18T13:08:25.697Z,10.60
2022-11-18T13:11:14.040Z,11.10
2022-11-18T13:13:41.792Z,10.70
2022-11-18T13:16:38.412Z,11.80
2022-11-18T13:19:05.514Z,9.60
2022-11-18T13:21:50.929Z,11.20
2022-11-18T13:24:19.068Z,12.00
2022-11-18T13:26:48.258Z,9.40
2022-11-18T13:29:37.939Z,11.10
2022-11-18T13:32:23.306Z,9.30
2022-11-18T13:34:51.385Z,9.20
2022-11-18T13:37:22.659Z,9.20
2022-11-18T13:39:49.725Z,9.10
2022-11-18T13:42:21.430Z,10.60
2022-11-18T13:45:14.641Z,9.10
2022-11-18T13:48:10.654Z,9.10
2022-11-18T13:50:39.810Z,9.10
2022-11-18T13:53:06.343Z,9.10
2022-11-18T13:55:45.591Z,9.20
2022-11-18T13:58:17.979Z,9.80
2022-11-18T14:00:54.295Z,9.00
2022-11-18T14:03:25.438Z,9.00
2022-11-18T14:05:55.749Z,8.90
2022-11-18T14:08:30.238Z,8.90
2022-11-18T14:10:57.142Z,8.90
2022-11-18T14:13:28.586Z,10.60
2022-11-18T14:15:57.069Z,9.10
2022-11-18T14:18:27.966Z,9.10
2022-11-18T14:20:55.018Z,11.60
2022-11-18T14:23:31.982Z,9.20
2022-11-18T14:25:59.857Z,9.10
2022-11-18T14:28:28.619Z,11.20
2022-11-18T14:31:03.842Z,10.70
2022-11-18T14:33:31.611Z,9.00
2022-11-18T14:35:59.755Z,8.90
2022-11-18T14:38:40.615Z,9.60
2022-11-18T14:41:11.918Z,8.80
2022-11-18T14:43:38.729Z,11.10
2022-11-18T14:46:06.836Z,10.60
2022-11-18T14:48:33.580Z,8.60
2022-11-18T14:51:00.298Z,8.60
2022-11-18T14:53:27.171Z,9.60
2022-11-18T14:55:54.801Z,11.20
2022-11-18T14:58:21.501Z,10.60
2022-11-18T15:00:49.094Z,9.60
2022-11-18T15:03:16.309Z,9.90
2022-11-18T15:05:43.156Z,8.40
2022-11-18T15:08:09.782Z,8.40
2022-11-18T15:10:36.365Z,10.50
2022-11-18T15:13:02.935Z,8.30
2022-11-18T15:15:29.600Z,8.30
2022-11-18T15:17:56.278Z,8.50
2022-11-18T15:20:23.332Z,10.40
2022-11-18T15:22:49.985Z,8.10
2022-11-18T15:25:16.550Z,9.40
2022-11-18T15:27:43.172Z,7.90
2022-11-18T15:30:11.616Z,10.10
2022-11-18T15:32:38.231Z,7.70
2022-11-18T15:35:04.903Z,9.20
2022-11-18T15:37:31.510Z,7.50
2022-11-18T15:39:58.192Z,8.70
2022-11-18T15:42:24.805Z,8.20
2022-11-18T15:44:51.406Z,7.20
2022-11-18T15:47:18.429Z,7.00
2022-11-18T15:49:45.375Z,7.00
2022-11-18T15:52:12.221Z,7.00
2022-11-18T15:54:38.904Z,9.60
2022-11-18T15:57:05.556Z,8.40
2022-11-18T15:59:32.327Z,7.00
2022-11-18T16:01:58.975Z,8.70
2022-11-18T16:04:25.616Z,6.90
2022-11-18T16:06:53.491Z,6.80
2022-11-18T16:09:20.775Z,6.90
2022-11-18T16:12:06.362Z,6.80
2022-11-18T16:14:35.873Z,6.80
2022-11-18T16:17:02.472Z,6.80
2022-11-18T16:19:33.331Z,6.80
2022-11-18T16:22:00.148Z,6.70
2022-11-18T16:24:27.808Z,8.90
2022-11-18T16:26:54.475Z,6.70
2022-11-18T16:29:21.559Z,6.70
2022-11-18T16:31:52.835Z,7.80
2022-11-18T16:34:20.768Z,9.20
2022-11-18T16:36:48.719Z,9.00
2022-11-18T16:39:26.083Z,6.60
2022-11-18T16:41:53.687Z,6.50
2022-11-18T16:44:20.365Z,6.50
2022-11-18T16:46:48.401Z,6.40
2022-11-18T16:49:17.028Z,7.80
2022-11-18T16:51:45.019Z,6.30
2022-11-18T16:54:17.959Z,6.30
2022-11-18T16:56:44.980Z,6.20
2022-11-18T16:59:13.366Z,8.40
2022-11-18T17:01:40.150Z,6.20
2022-11-18T17:04:06.798Z,8.30
2022-11-18T17:06:33.443Z,6.20
2022-11-18T17:09:00.317Z,6.00
2022-11-18T17:11:27.219Z,7.50
2022-11-18T17:13:57.967Z,6.00
2022-11-18T17:16:26.059Z,6.10
2022-11-18T17:18:56.815Z,6.00
2022-11-18T17:21:23.878Z,6.00
2022-11-18T17:23:51.180Z,6.00
2022-11-18T17:26:19.003Z,6.00
2022-11-18T17:28:45.649Z,8.50
2022-11-18T17:31:17.026Z,5.90
2022-11-18T17:33:44.312Z,5.90
2022-11-18T17:36:15.206Z,5.90
2022-11-18T17:38:43.268Z,5.80
2022-11-18T17:41:30.873Z,7.60
2022-11-18T17:44:00.806Z,5.90
2022-11-18T17:46:27.668Z,5.90
2022-11-18T17:48:57.756Z,5.90
2022-11-18T17:51:25.505Z,5.90
2022-11-18T17:53:52.404Z,5.90
2022-11-18T17:56:19.546Z,5.90
2022-11-18T17:58:46.564Z,5.90
2022-11-18T18:01:14.577Z,6.00
2022-11-18T18:03:41.471Z,6.00
2022-11-18T18:06:09.643Z,5.90
2022-11-18T18:08:36.351Z,5.90
2022-11-18T18:11:02.862Z,5.80
2022-11-18T18:13:48.386Z,5.90
2022-11-18T18:16:15.008Z,7.30
2022-11-18T18:18:44.085Z,5.90
2022-11-18T18:21:12.996Z,7.30
2022-11-18T18:23:39.866Z,6.00
2022-11-18T18:26:07.107Z,6.00
2022-11-18T18:28:34.081Z,8.40
2022-11-18T18:31:01.128Z,6.10
2022-11-18T18:33:27.790Z,6.20
2022-11-18T18:35:57.999Z,6.10
2022-11-18T18:38:25.193Z,6.10
2022-11-18T18:40:51.843Z,6.20
2022-11-18T18:43:18.487Z,5.30
2022-11-18T18:46:04.032Z,6.20
2022-11-18T18:48:30.742Z,6.80
2022-11-18T18:51:05.112Z,8.80
2022-11-18T18:53:32.279Z,6.30
2022-11-18T18:55:58.976Z,6.40
2022-11-18T18:58:25.761Z,7.10
2022-11-18T19:00:57.916Z,6.30
2022-11-18T19:03:25.031Z,6.30
2022-11-18T19:06:27.297Z,6.60
2022-11-18T19:08:38.262Z,6.30
2022-11-18T19:11:05.574Z,6.30
2022-11-18T19:13:32.636Z,6.20
2022-11-18T19:16:04.345Z,8.30
2022-11-18T19:18:34.117Z,8.70
2022-11-18T19:21:00.711Z,6.30
2022-11-18T19:23:27.424Z,7.80
2022-11-18T19:26:00.731Z,8.60
2022-11-18T19:28:27.769Z,6.50
2022-11-18T19:30:54.381Z,6.70
2022-11-18T19:33:21.066Z,7.80
2022-11-18T19:35:47.645Z,6.50
2022-11-18T19:38:14.341Z,6.60
2022-11-18T19:40:41.032Z,6.60
2022-11-18T19:43:07.811Z,7.70
2022-11-18T19:45:34.517Z,8.40
2022-11-18T19:48:02.459Z,6.60
2022-11-18T19:50:29.295Z,6.60
2022-11-18T19:52:56.376Z,6.60
2022-11-18T19:55:23.013Z,6.60
2022-11-18T19:57:49.627Z,6.50
2022-11-18T20:00:16.693Z,6.40
2022-11-18T20:02:43.283Z,6.30
2022-11-18T20:05:28.788Z,6.30
2022-11-18T20:07:56.023Z,6.30
2022-11-18T20:10:22.589Z,6.20
2022-11-18T20:12:49.215Z,6.10
2022-11-18T20:15:15.879Z,6.00
2022-11-18T20:17:42.549Z,6.00
2022-11-18T20:20:09.603Z,6.00
2022-11-18T20:22:36.330Z,5.90
2022-11-18T20:25:03.183Z,6.00
2022-11-18T20:27:29.836Z,5.90
2022-11-18T20:29:56.440Z,7.30
2022-11-18T20:32:23.049Z,7.90
2022-11-18T20:34:49.684Z,6.00
2022-11-18T20:37:18.049Z,8.20
2022-11-18T20:39:44.630Z,6.00
2022-11-18T20:42:30.062Z,6.00
2022-11-18T20:44:56.648Z,6.00
2022-11-18T20:47:23.330Z,6.00
2022-11-18T20:49:49.982Z,7.50
2022-11-18T20:52:16.615Z,7.70
2022-11-18T20:54:45.507Z,6.10
2022-11-18T20:57:12.082Z,7.40
2022-11-18T20:59:38.903Z,6.80
2022-11-18T21:02:05.564Z,6.10
2022-11-18T21:04:32.270Z,6.10
2022-11-18T21:07:01.568Z,5.40
2022-11-18T21:09:31.785Z,6.10
2022-11-18T21:11:59.040Z,8.40
2022-11-18T21:14:25.970Z,6.10
2022-11-18T21:16:54.005Z,6.80
2022-11-18T21:19:21.488Z,6.10
2022-11-18T21:21:49.161Z,7.00
2022-11-18T21:24:17.311Z,6.20
2022-11-18T21:26:44.891Z,6.20
2022-11-18T21:29:12.380Z,7.90
2022-11-18T21:31:39.376Z,6.20
2022-11-18T21:34:06.465Z,6.30
2022-11-18T21:36:33.848Z,8.40
2022-11-18T21:39:02.433Z,7.10
2022-11-18T21:41:29.574Z,6.40
2022-11-18T21:44:06.022Z,6.40
2022-11-18T21:46:37.187Z,7.70
2022-11-18T21:49:04.583Z,6.30
2022-11-18T21:51:33.974Z,6.30
2022-11-18T21:54:01.027Z,8.40
2022-11-18T21:56:30.521Z,6.30
2022-11-18T21:58:58.357Z,6.20
2022-11-18T22:01:26.177Z,6.20
2022-11-18T22:03:55.687Z,6.20
2022-11-18T22:06:23.459Z,6.10
2022-11-18T22:08:50.298Z,8.10
2022-11-18T22:11:16.990Z,6.00
2022-11-18T22:13:43.743Z,6.00
2022-11-18T22:16:11.654Z,7.80
2022-11-18T22:18:39.401Z,8.00
2022-11-18T22:21:13.412Z,6.10
2022-11-18T22:23:40.236Z,6.00
2022-11-18T22:26:10.435Z,6.00
2022-11-18T22:28:37.135Z,6.00
2022-11-18T22:31:06.514Z,8.60
2022-11-18T22:33:33.828Z,5.80
2022-11-18T22:36:01.618Z,5.80
2022-11-18T22:38:28.855Z,5.70
2022-11-18T22:41:06.031Z,5.80
2022-11-18T22:43:33.547Z,5.80
2022-11-18T22:46:07.064Z,6.20
2022-11-18T22:48:34.298Z,5.90
2022-11-18T22:51:05.157Z,6.00
2022-11-18T22:53:32.462Z,6.00
2022-11-18T22:56:03.113Z,6.10
2022-11-18T22:58:30.330Z,6.10
2022-11-18T23:01:07.838Z,6.10
2022-11-18T23:03:34.934Z,6.20
2022-11-18T23:06:01.948Z,6.20
2022-11-18T23:08:31.324Z,6.20
2022-11-18T23:11:04.963Z,6.20
2022-11-18T23:13:50.092Z,6.20
2022-11-18T23:16:16.741Z,8.20
2022-11-18T23:18:45.044Z,6.20
2022-11-18T23:21:11.671Z,6.20
2022-11-18T23:23:38.330Z,6.20
2022-11-18T23:26:09.005Z,6.30
2022-11-18T23:28:37.521Z,6.20
2022-11-18T23:31:08.325Z,7.80
2022-11-18T23:33:35.267Z,6.20
2022-11-18T23:36:02.031Z,6.90
2022-11-18T23:38:29.186Z,6.30
2022-11-18T23:40:56.920Z,6.20
2022-11-18T23:43:27.283Z,6.30
2022-11-18T23:45:54.351Z,6.20
2022-11-18T23:48:22.186Z,8.00
2022-11-18T23:50:59.276Z,6.30
2022-11-18T23:53:26.225Z,6.20
2022-11-18T23:55:53.165Z,6.30
2022-11-18T23:58:19.763Z,6.30
